KIPT/IPT METAR and TAF weather

Enter ICAO airport designator
Station Type Date Time Source
KIPT METAR 2023/09/28 19:54 UTC NOAA

KIPT 281954Z 11006KT 10SM BKN039 20/11 A3018 RMK AO2 SLP221 T02000111


Station Type Date Time Source
KIPT Decoded METAR 2023/09/28 19:54 UTC NOAA

WILLIAMSPORT-LYCOMING COUNTY, PA, United States (KIPT) 41-15N 076-55W 164M
Sep 28, 2023 - 03:54 PM EDT / 2023.09.28 1954 UTC
Wind: from the ESE (110 degrees) at 7 MPH (6 KT):0
Visibility: 10 mile(s):0
Sky conditions: mostly cloudy
Temperature: 68.0 F (20.0 C)
Dew Point: 52.0 F (11.1 C)
Relative Humidity: 56%
Pressure (altimeter): 30.18 in. Hg (1022 hPa)
ob: KIPT 281954Z 11006KT 10SM BKN039 20/11 A3018 RMK AO2 SLP221 T02000111
cycle: 20

Station Type Date Time Source
KIPT TAF 2023/09/28 18:28 UTC NOAA

TAF KIPT 281726Z 2818/2918 10004KT P6SM OVC025
FM281900 12006KT P6SM BKN050
FM282300 12003KT P6SM OVC050
FM290300 11003KT P6SM OVC015
FM290600 08002KT 6SM BR VCSH OVC007
FM290800 07002KT 6SM -RA BR OVC003
FM291500 VRB03KT 4SM BR OVC007

Example: see airport list